sensor_id;sensor_type;location;lat;lon;timestamp;pressure;altitude;pressure_sealevel;temperature;humidity
9035;BME280;4552;43.422;24.592;2023-01-26T00:00:06;100920.19;;;1.76;100.00
9035;BME280;4552;43.422;24.592;2023-01-26T00:02:37;100917.56;;;1.74;100.00
9035;BME280;4552;43.422;24.592;2023-01-26T00:05:25;100896.47;;;1.62;100.00
9035;BME280;4552;43.422;24.592;2023-01-26T00:07:52;100913.44;;;1.79;100.00
9035;BME280;4552;43.422;24.592;2023-01-26T00:10:19;100918.22;;;1.69;100.00
9035;BME280;4552;43.422;24.592;2023-01-26T00:12:47;100918.00;;;1.63;100.00
9035;BME280;4552;43.422;24.592;2023-01-26T00:15:18;100885.03;;;1.56;100.00
9035;BME280;4552;43.422;24.592;2023-01-26T00:17:46;100862.63;;;1.31;100.00
9035;BME280;4552;43.422;24.592;2023-01-26T00:20:16;100896.31;;;1.58;100.00
9035;BME280;4552;43.422;24.592;2023-01-26T00:22:47;100867.25;;;1.40;100.00
9035;BME280;4552;43.422;24.592;2023-01-26T00:25:19;100911.94;;;1.62;100.00
9035;BME280;4552;43.422;24.592;2023-01-26T00:27:50;100878.13;;;1.55;100.00
9035;BME280;4552;43.422;24.592;2023-01-26T00:30:19;100888.88;;;1.89;100.00
9035;BME280;4552;43.422;24.592;2023-01-26T00:32:47;100865.09;;;1.74;100.00
9035;BME280;4552;43.422;24.592;2023-01-26T00:35:16;100852.94;;;1.71;100.00
9035;BME280;4552;43.422;24.592;2023-01-26T00:37:46;100884.03;;;1.98;100.00
9035;BME280;4552;43.422;24.592;2023-01-26T00:40:14;100863.13;;;1.91;100.00
9035;BME280;4552;43.422;24.592;2023-01-26T00:42:42;100848.28;;;1.61;100.00
9035;BME280;4552;43.422;24.592;2023-01-26T00:45:09;100870.38;;;1.77;100.00
9035;BME280;4552;43.422;24.592;2023-01-26T00:47:38;100880.25;;;1.65;100.00
9035;BME280;4552;43.422;24.592;2023-01-26T00:50:07;100844.38;;;1.27;100.00
9035;BME280;4552;43.422;24.592;2023-01-26T00:52:37;100872.81;;;1.50;100.00
9035;BME280;4552;43.422;24.592;2023-01-26T00:55:31;100858.34;;;1.54;100.00
9035;BME280;4552;43.422;24.592;2023-01-26T00:58:08;100857.59;;;1.58;100.00
9035;BME280;4552;43.422;24.592;2023-01-26T01:00:37;100848.28;;;1.61;100.00
9035;BME280;4552;43.422;24.592;2023-01-26T01:03:06;100871.88;;;1.72;100.00
9035;BME280;4552;43.422;24.592;2023-01-26T01:05:34;100840.28;;;1.54;100.00
9035;BME280;4552;43.422;24.592;2023-01-26T01:08:01;100835.81;;;1.73;100.00
9035;BME280;4552;43.422;24.592;2023-01-26T01:10:30;100867.16;;;1.84;100.00
9035;BME280;4552;43.422;24.592;2023-01-26T01:13:02;100876.53;;;1.82;100.00
9035;BME280;4552;43.422;24.592;2023-01-26T01:15:29;100836.97;;;1.58;100.00
9035;BME280;4552;43.422;24.592;2023-01-26T01:17:57;100839.59;;;1.59;100.00
9035;BME280;4552;43.422;24.592;2023-01-26T01:20:24;100867.16;;;1.84;100.00
9035;BME280;4552;43.422;24.592;2023-01-26T01:22:53;100841.38;;;1.60;100.00
9035;BME280;4552;43.422;24.592;2023-01-26T01:25:22;100843.50;;;1.48;100.00
9035;BME280;4552;43.422;24.592;2023-01-26T01:27:51;100861.13;;;1.60;100.00
9035;BME280;4552;43.422;24.592;2023-01-26T01:30:18;100843.44;;;1.47;100.00
9035;BME280;4552;43.422;24.592;2023-01-26T01:32:46;100826.00;;;1.40;100.00
9035;BME280;4552;43.422;24.592;2023-01-26T01:35:16;100861.72;;;1.53;100.00
9035;BME280;4552;43.422;24.592;2023-01-26T01:37:46;100866.06;;;1.54;100.00
9035;BME280;4552;43.422;24.592;2023-01-26T01:40:14;100852.13;;;1.49;100.00
9035;BME280;4552;43.422;24.592;2023-01-26T01:42:46;100831.94;;;1.61;100.00
9035;BME280;4552;43.422;24.592;2023-01-26T01:45:37;100823.34;;;1.60;100.00
9035;BME280;4552;43.422;24.592;2023-01-26T01:48:14;100807.72;;;1.81;100.00
9035;BME280;4552;43.422;24.592;2023-01-26T01:50:47;100801.72;;;1.82;100.00
9035;BME280;4552;43.422;24.592;2023-01-26T01:53:22;100817.41;;;1.88;100.00
9035;BME280;4552;43.422;24.592;2023-01-26T01:55:55;100820.50;;;1.78;100.00
9035;BME280;4552;43.422;24.592;2023-01-26T01:58:25;100810.19;;;1.78;100.00
9035;BME280;4552;43.422;24.592;2023-01-26T02:00:55;100784.97;;;1.69;100.00
9035;BME280;4552;43.422;24.592;2023-01-26T02:03:25;100803.75;;;1.67;100.00
9035;BME280;4552;43.422;24.592;2023-01-26T02:06:14;100812.94;;;1.83;100.00
9035;BME280;4552;43.422;24.592;2023-01-26T02:08:56;100778.28;;;1.76;100.00
9035;BME280;4552;43.422;24.592;2023-01-26T02:11:27;100770.22;;;1.67;100.00
9035;BME280;4552;43.422;24.592;2023-01-26T02:13:57;100782.97;;;1.62;100.00
9035;BME280;4552;43.422;24.592;2023-01-26T02:16:29;100764.31;;;1.46;100.00
9035;BME280;4552;43.422;24.592;2023-01-26T02:19:16;100795.97;;;1.65;100.00
9035;BME280;4552;43.422;24.592;2023-01-26T02:22:06;100787.81;;;1.77;100.00
9035;BME280;4552;43.422;24.592;2023-01-26T02:24:37;100753.78;;;1.63;100.00
9035;BME280;4552;43.422;24.592;2023-01-26T02:27:10;100807.19;;;1.91;100.00
9035;BME280;4552;43.422;24.592;2023-01-26T02:29:37;100778.03;;;1.68;100.00
9035;BME280;4552;43.422;24.592;2023-01-26T02:32:06;100758.06;;;1.63;100.00
9035;BME280;4552;43.422;24.592;2023-01-26T02:34:36;100756.69;;;1.72;100.00
9035;BME280;4552;43.422;24.592;2023-01-26T02:37:04;100789.13;;;1.91;100.00
9035;BME280;4552;43.422;24.592;2023-01-26T02:39:42;100784.75;;;1.89;100.00
9035;BME280;4552;43.422;24.592;2023-01-26T02:42:15;100795.44;;;1.99;100.00
9035;BME280;4552;43.422;24.592;2023-01-26T02:44:59;100773.97;;;2.00;100.00
9035;BME280;4552;43.422;24.592;2023-01-26T02:47:27;100762.41;;;1.89;100.00
9035;BME280;4552;43.422;24.592;2023-01-26T02:49:54;100791.84;;;1.94;100.00
9035;BME280;4552;43.422;24.592;2023-01-26T02:52:24;100753.13;;;1.69;100.00
9035;BME280;4552;43.422;24.592;2023-01-26T02:54:56;100739.44;;;1.46;100.00
9035;BME280;4552;43.422;24.592;2023-01-26T02:57:41;100763.63;;;1.75;100.00
9035;BME280;4552;43.422;24.592;2023-01-26T03:00:10;100749.81;;;1.73;100.00
9035;BME280;4552;43.422;24.592;2023-01-26T03:02:42;100741.34;;;1.77;100.00
9035;BME280;4552;43.422;24.592;2023-01-26T03:05:09;100774.78;;;1.99;100.00
9035;BME280;4552;43.422;24.592;2023-01-26T03:07:37;100777.69;;;2.08;100.00
9035;BME280;4552;43.422;24.592;2023-01-26T03:10:10;100739.38;;;1.95;100.00
9035;BME280;4552;43.422;24.592;2023-01-26T03:12:39;100727.00;;;1.85;100.00
9035;BME280;4552;43.422;24.592;2023-01-26T03:15:08;100722.47;;;1.78;100.00
9035;BME280;4552;43.422;24.592;2023-01-26T03:18:00;100726.78;;;1.79;100.00
9035;BME280;4552;43.422;24.592;2023-01-26T03:21:01;100729.91;;;1.94;100.00
9035;BME280;4552;43.422;24.592;2023-01-26T03:23:47;100721.13;;;1.89;100.00
9035;BME280;4552;43.422;24.592;2023-01-26T03:26:31;100714.81;;;1.81;100.00
9035;BME280;4552;43.422;24.592;2023-01-26T03:29:18;100699.00;;;1.70;100.00
9035;BME280;4552;43.422;24.592;2023-01-26T03:31:45;100705.69;;;1.65;100.00
9035;BME280;4552;43.422;24.592;2023-01-26T03:34:13;100712.16;;;1.78;100.00
9035;BME280;4552;43.422;24.592;2023-01-26T03:36:40;100728.91;;;1.91;100.00
9035;BME280;4552;43.422;24.592;2023-01-26T03:39:08;100719.25;;;1.85;100.00
9035;BME280;4552;43.422;24.592;2023-01-26T03:41:57;100693.13;;;1.76;100.00
9035;BME280;4552;43.422;24.592;2023-01-26T03:44:44;100697.59;;;1.80;100.00
9035;BME280;4552;43.422;24.592;2023-01-26T03:47:30;100691.16;;;1.93;100.00
9035;BME280;4552;43.422;24.592;2023-01-26T03:50:15;100688.56;;;1.93;100.00
9035;BME280;4552;43.422;24.592;2023-01-26T03:53:02;100664.88;;;1.79;100.00
9035;BME280;4552;43.422;24.592;2023-01-26T03:55:52;100684.06;;;1.87;100.00
9035;BME280;4552;43.422;24.592;2023-01-26T03:59:06;100695.13;;;1.83;100.00
9035;BME280;4552;43.422;24.592;2023-01-26T04:02:04;100684.81;;;1.83;100.00
9035;BME280;4552;43.422;24.592;2023-01-26T04:04:49;100687.13;;;1.75;100.00
9035;BME280;4552;43.422;24.592;2023-01-26T04:07:34;100689.97;;;1.83;100.00
9035;BME280;4552;43.422;24.592;2023-01-26T04:10:19;100651.84;;;1.49;100.00
9035;BME280;4552;43.422;24.592;2023-01-26T04:13:01;100693.03;;;1.73;100.00
9035;BME280;4552;43.422;24.592;2023-01-26T04:15:49;100653.63;;;1.52;100.00
9035;BME280;4552;43.422;24.592;2023-01-26T04:18:36;100685.84;;;1.63;100.00
9035;BME280;4552;43.422;24.592;2023-01-26T04:21:21;100668.28;;;1.53;100.00
9035;BME280;4552;43.422;24.592;2023-01-26T04:23:56;100677.50;;;1.71;100.00
9035;BME280;4552;43.422;24.592;2023-01-26T04:26:25;100676.31;;;1.87;100.00
9035;BME280;4552;43.422;24.592;2023-01-26T04:29:01;100648.19;;;1.68;100.00
9035;BME280;4552;43.422;24.592;2023-01-26T04:31:30;100636.38;;;1.76;100.00
9035;BME280;4552;43.422;24.592;2023-01-26T04:34:00;100670.00;;;2.04;100.00
9035;BME280;4552;43.422;24.592;2023-01-26T04:36:28;100666.59;;;1.78;100.00
9035;BME280;4552;43.422;24.592;2023-01-26T04:38:58;100677.53;;;1.98;100.00
9035;BME280;4552;43.422;24.592;2023-01-26T04:41:27;100638.72;;;1.68;100.00
9035;BME280;4552;43.422;24.592;2023-01-26T04:43:55;100670.84;;;1.78;100.00
9035;BME280;4552;43.422;24.592;2023-01-26T04:46:25;100653.38;;;1.96;100.00
9035;BME280;4552;43.422;24.592;2023-01-26T04:48:53;100644.13;;;1.76;100.00
9035;BME280;4552;43.422;24.592;2023-01-26T04:51:26;100667.69;;;1.60;100.00
9035;BME280;4552;43.422;24.592;2023-01-26T04:53:54;100629.81;;;1.34;100.00
9035;BME280;4552;43.422;24.592;2023-01-26T04:56:38;100632.72;;;1.43;100.00
9035;BME280;4552;43.422;24.592;2023-01-26T04:59:11;100604.88;;;1.33;100.00
9035;BME280;4552;43.422;24.592;2023-01-26T05:01:47;100626.50;;;1.38;100.00
9035;BME280;4552;43.422;24.592;2023-01-26T05:04:27;100631.78;;;1.41;100.00
9035;BME280;4552;43.422;24.592;2023-01-26T05:06:57;100615.88;;;1.29;100.00
9035;BME280;4552;43.422;24.592;2023-01-26T05:09:31;100636.81;;;1.63;100.00
9035;BME280;4552;43.422;24.592;2023-01-26T05:12:02;100614.13;;;1.53;100.00
9035;BME280;4552;43.422;24.592;2023-01-26T05:14:44;100584.66;;;1.20;100.00
9035;BME280;4552;43.422;24.592;2023-01-26T05:17:12;100621.25;;;1.35;100.00
9035;BME280;4552;43.422;24.592;2023-01-26T05:19:42;100644.97;;;1.50;100.00
9035;BME280;4552;43.422;24.592;2023-01-26T05:22:11;100611.25;;;1.44;100.00
9035;BME280;4552;43.422;24.592;2023-01-26T05:24:38;100613.91;;;1.47;100.00
9035;BME280;4552;43.422;24.592;2023-01-26T05:27:09;100634.34;;;1.66;100.00
9035;BME280;4552;43.422;24.592;2023-01-26T05:29:50;100591.75;;;1.27;100.00
9035;BME280;4552;43.422;24.592;2023-01-26T05:32:20;100602.50;;;1.39;100.00
9035;BME280;4552;43.422;24.592;2023-01-26T05:34:49;100626.56;;;1.39;100.00
9035;BME280;4552;43.422;24.592;2023-01-26T05:37:46;100587.13;;;1.42;100.00
9035;BME280;4552;43.422;24.592;2023-01-26T05:40:20;100617.50;;;1.50;100.00
9035;BME280;4552;43.422;24.592;2023-01-26T05:42:50;100616.09;;;1.35;100.00
9035;BME280;4552;43.422;24.592;2023-01-26T05:45:20;100604.25;;;1.40;100.00
9035;BME280;4552;43.422;24.592;2023-01-26T05:47:47;100568.72;;;1.31;100.00
9035;BME280;4552;43.422;24.592;2023-01-26T05:50:16;100571.25;;;1.30;100.00
9035;BME280;4552;43.422;24.592;2023-01-26T05:53:00;100596.66;;;1.44;100.00
9035;BME280;4552;43.422;24.592;2023-01-26T05:55:29;100540.72;;;1.17;100.00
9035;BME280;4552;43.422;24.592;2023-01-26T05:57:59;100558.72;;;1.40;100.00
9035;BME280;4552;43.422;24.592;2023-01-26T06:00:52;100542.06;;;1.06;100.00
9035;BME280;4552;43.422;24.592;2023-01-26T06:06:24;100598.34;;;1.44;100.00
9035;BME280;4552;43.422;24.592;2023-01-26T06:09:34;100564.63;;;1.38;100.00
9035;BME280;4552;43.422;24.592;2023-01-26T06:12:33;100598.38;;;1.70;100.00
9035;BME280;4552;43.422;24.592;2023-01-26T06:15:16;100587.22;;;1.45;100.00
9035;BME280;4552;43.422;24.592;2023-01-26T06:17:45;100603.88;;;1.29;100.00
9035;BME280;4552;43.422;24.592;2023-01-26T06:20:26;100592.09;;;1.36;100.00
9035;BME280;4552;43.422;24.592;2023-01-26T06:23:15;100568.84;;;1.34;100.00
9035;BME280;4552;43.422;24.592;2023-01-26T06:26:17;100565.28;;;1.31;100.00
9035;BME280;4552;43.422;24.592;2023-01-26T06:29:02;100606.19;;;1.47;100.00
9035;BME280;4552;43.422;24.592;2023-01-26T06:31:35;100587.22;;;1.45;100.00
9035;BME280;4552;43.422;24.592;2023-01-26T06:34:05;100592.00;;;1.33;100.00
9035;BME280;4552;43.422;24.592;2023-01-26T06:36:45;100601.31;;;1.56;100.00
9035;BME280;4552;43.422;24.592;2023-01-26T06:39:13;100583.97;;;1.50;100.00
9035;BME280;4552;43.422;24.592;2023-01-26T06:41:46;100581.34;;;1.49;100.00
9035;BME280;4552;43.422;24.592;2023-01-26T06:44:25;100589.47;;;1.61;100.00
9035;BME280;4552;43.422;24.592;2023-01-26T06:49:43;100587.72;;;1.35;100.00
9035;BME280;4552;43.422;24.592;2023-01-26T07:28:51;100516.91;;;1.50;100.00
9035;BME280;4552;43.422;24.592;2023-01-26T07:31:20;100531.72;;;1.84;100.00
9035;BME280;4552;43.422;24.592;2023-01-26T07:33:47;100537.69;;;1.82;100.00
9035;BME280;4552;43.422;24.592;2023-01-26T07:36:18;100512.53;;;1.76;100.00
9035;BME280;4552;43.422;24.592;2023-01-26T07:38:53;100524.31;;;1.95;100.00
9035;BME280;4552;43.422;24.592;2023-01-26T07:41:31;100531.78;;;1.86;100.00
9035;BME280;4552;43.422;24.592;2023-01-26T07:44:14;100547.56;;;1.96;100.00
9035;BME280;4552;43.422;24.592;2023-01-26T07:46:45;100498.44;;;1.63;100.00
9035;BME280;4552;43.422;24.592;2023-01-26T07:49:43;100490.66;;;1.62;100.00
9035;BME280;4552;43.422;24.592;2023-01-26T07:52:41;100532.09;;;1.68;100.00
9035;BME280;4552;43.422;24.592;2023-01-26T08:24:19;100472.84;;;1.71;100.00
9035;BME280;4552;43.422;24.592;2023-01-26T08:32:01;100467.25;;;1.57;100.00
9035;BME280;4552;43.422;24.592;2023-01-26T08:34:30;100498.53;;;1.96;100.00
9035;BME280;4552;43.422;24.592;2023-01-26T08:37:07;100464.00;;;1.63;100.00
9035;BME280;4552;43.422;24.592;2023-01-26T08:40:14;100460.59;;;1.64;100.00
9035;BME280;4552;43.422;24.592;2023-01-26T08:42:59;100469.44;;;1.72;100.00
9035;BME280;4552;43.422;24.592;2023-01-26T08:45:45;100481.59;;;1.76;100.00
9035;BME280;4552;43.422;24.592;2023-01-26T08:48:22;100499.72;;;2.07;100.00
9035;BME280;4552;43.422;24.592;2023-01-26T08:50:53;100461.50;;;1.94;100.00
9035;BME280;4552;43.422;24.592;2023-01-26T08:53:23;100458.94;;;1.94;100.00
9035;BME280;4552;43.422;24.592;2023-01-26T08:56:21;100474.19;;;2.16;100.00
9035;BME280;4552;43.422;24.592;2023-01-26T08:59:06;100491.78;;;2.29;100.00
9035;BME280;4552;43.422;24.592;2023-01-26T09:01:34;100442.09;;;2.08;100.00
9035;BME280;4552;43.422;24.592;2023-01-26T09:04:10;100476.44;;;2.35;100.00
9035;BME280;4552;43.422;24.592;2023-01-26T09:06:39;100466.47;;;2.18;100.00
9035;BME280;4552;43.422;24.592;2023-01-26T09:09:08;100467.09;;;2.09;100.00
9035;BME280;4552;43.422;24.592;2023-01-26T09:11:44;100473.56;;;2.25;100.00
9035;BME280;4552;43.422;24.592;2023-01-26T09:16:47;100438.59;;;2.05;100.00
9035;BME280;4552;43.422;24.592;2023-01-26T09:19:24;100440.88;;;1.94;100.00
9035;BME280;4552;43.422;24.592;2023-01-26T09:21:54;100456.22;;;2.21;100.00
9035;BME280;4552;43.422;24.592;2023-01-26T09:24:29;100449.28;;;2.18;100.00
9035;BME280;4552;43.422;24.592;2023-01-26T09:36:57;100426.91;;;2.19;100.00
9035;BME280;4552;43.422;24.592;2023-01-26T09:39:39;100433.75;;;2.17;100.00
9035;BME280;4552;43.422;24.592;2023-01-26T09:42:41;100388.06;;;1.83;100.00
9035;BME280;4552;43.422;24.592;2023-01-26T09:58:32;100418.31;;;2.18;100.00
9035;BME280;4552;43.422;24.592;2023-01-26T10:01:03;100413.88;;;2.14;100.00
9035;BME280;4552;43.422;24.592;2023-01-26T10:03:48;100416.81;;;2.26;100.00
9035;BME280;4552;43.422;24.592;2023-01-26T10:06:36;100375.44;;;1.92;100.00
9035;BME280;4552;43.422;24.592;2023-01-26T10:09:38;100405.59;;;1.95;100.00
9035;BME280;4552;43.422;24.592;2023-01-26T10:12:15;100360.53;;;1.83;100.00
9035;BME280;4552;43.422;24.592;2023-01-26T10:15:02;100407.69;;;2.08;100.00
9035;BME280;4552;43.422;24.592;2023-01-26T10:17:48;100359.69;;;1.83;100.00
9035;BME280;4552;43.422;24.592;2023-01-26T10:20:29;100352.38;;;1.98;100.00
9035;BME280;4552;43.422;24.592;2023-01-26T10:23:00;100328.78;;;1.85;100.00
9035;BME280;4552;43.422;24.592;2023-01-26T10:25:35;100343.91;;;2.04;100.00
9035;BME280;4552;43.422;24.592;2023-01-26T10:28:15;100340.38;;;2.00;100.00
9035;BME280;4552;43.422;24.592;2023-01-26T10:52:06;100297.34;;;2.33;100.00
9035;BME280;4552;43.422;24.592;2023-01-26T10:55:09;100308.97;;;2.50;100.00
9035;BME280;4552;43.422;24.592;2023-01-26T10:57:40;100291.28;;;2.67;100.00
9035;BME280;4552;43.422;24.592;2023-01-26T11:00:21;100315.63;;;2.76;100.00
9035;BME280;4552;43.422;24.592;2023-01-26T11:02:51;100322.09;;;2.59;100.00
9035;BME280;4552;43.422;24.592;2023-01-26T15:09:18;100013.59;;;3.43;100.00
9035;BME280;4552;43.422;24.592;2023-01-26T15:11:54;100012.53;;;3.31;100.00
9035;BME280;4552;43.422;24.592;2023-01-26T15:14:56;99999.38;;;3.17;100.00
9035;BME280;4552;43.422;24.592;2023-01-26T15:17:43;99967.25;;;3.03;100.00
9035;BME280;4552;43.422;24.592;2023-01-26T15:20:55;99990.78;;;3.18;100.00
9035;BME280;4552;43.422;24.592;2023-01-26T15:23:41;99990.41;;;2.97;100.00
9035;BME280;4552;43.422;24.592;2023-01-26T15:26:20;99950.75;;;2.95;100.00
9035;BME280;4552;43.422;24.592;2023-01-26T15:29:00;99981.97;;;3.07;100.00
9035;BME280;4552;43.422;24.592;2023-01-26T15:55:36;99971.38;;;2.92;100.00
9035;BME280;4552;43.422;24.592;2023-01-26T15:58:07;99947.38;;;2.99;100.00
9035;BME280;4552;43.422;24.592;2023-01-26T16:00:53;99937.47;;;2.74;100.00
9035;BME280;4552;43.422;24.592;2023-01-26T16:03:36;99941.88;;;2.81;100.00
9035;BME280;4552;43.422;24.592;2023-01-26T16:06:26;99966.06;;;2.85;100.00
9035;BME280;4552;43.422;24.592;2023-01-26T16:08:57;99918.25;;;2.59;100.00
9035;BME280;4552;43.422;24.592;2023-01-26T16:11:53;99928.00;;;2.73;100.00
9035;BME280;4552;43.422;24.592;2023-01-26T16:14:38;99941.63;;;2.66;100.00
9035;BME280;4552;43.422;24.592;2023-01-26T16:17:12;99959.16;;;2.82;100.00
9035;BME280;4552;43.422;24.592;2023-01-26T16:19:40;99960.72;;;2.74;100.00
9035;BME280;4552;43.422;24.592;2023-01-26T16:22:15;99945.16;;;2.71;100.00
9035;BME280;4552;43.422;24.592;2023-01-26T16:24:44;99928.16;;;2.82;100.00
9035;BME280;4552;43.422;24.592;2023-01-26T16:42:35;99945.91;;;2.64;100.00
9035;BME280;4552;43.422;24.592;2023-01-26T16:45:13;99934.53;;;2.53;100.00
9035;BME280;4552;43.422;24.592;2023-01-26T16:47:42;99911.59;;;2.25;100.00
9035;BME280;4552;43.422;24.592;2023-01-26T16:50:09;99923.44;;;2.14;100.00
9035;BME280;4552;43.422;24.592;2023-01-26T16:52:38;99925.16;;;2.14;100.00
9035;BME280;4552;43.422;24.592;2023-01-26T16:55:08;99922.47;;;2.08;100.00
9035;BME280;4552;43.422;24.592;2023-01-26T16:57:39;99906.78;;;1.97;100.00
9035;BME280;4552;43.422;24.592;2023-01-26T17:00:20;99907.66;;;1.99;100.00
9035;BME280;4552;43.422;24.592;2023-01-26T17:02:51;99914.94;;;2.18;100.00
9035;BME280;4552;43.422;24.592;2023-01-26T17:05:21;99881.66;;;1.90;100.00
9035;BME280;4552;43.422;24.592;2023-01-26T17:08:04;99888.81;;;2.03;100.00
9035;BME280;4552;43.422;24.592;2023-01-26T17:10:32;99855.19;;;1.99;100.00
9035;BME280;4552;43.422;24.592;2023-01-26T17:13:17;99864.63;;;1.98;100.00
9035;BME280;4552;43.422;24.592;2023-01-26T17:16:07;99877.84;;;2.15;100.00
9035;BME280;4552;43.422;24.592;2023-01-26T17:19:13;99850.75;;;1.93;100.00
9035;BME280;4552;43.422;24.592;2023-01-26T17:22:12;99867.41;;;2.09;100.00
9035;BME280;4552;43.422;24.592;2023-01-26T17:25:02;99877.06;;;2.20;100.00
9035;BME280;4552;43.422;24.592;2023-01-26T17:28:31;99841.44;;;2.00;100.00
9035;BME280;4552;43.422;24.592;2023-01-26T17:31:40;99840.56;;;1.99;100.00
9035;BME280;4552;43.422;24.592;2023-01-26T17:34:24;99850.94;;;2.02;100.00
9035;BME280;4552;43.422;24.592;2023-01-26T17:37:14;99826.63;;;1.91;100.00
9035;BME280;4552;43.422;24.592;2023-01-26T17:39:47;99840.44;;;1.93;100.00
9035;BME280;4552;43.422;24.592;2023-01-26T17:42:28;99855.91;;;1.92;100.00
9035;BME280;4552;43.422;24.592;2023-01-26T18:46:23;99775.47;;;1.67;100.00
9035;BME280;4552;43.422;24.592;2023-01-26T18:49:06;99788.38;;;1.67;100.00
9035;BME280;4552;43.422;24.592;2023-01-26T18:51:47;99758.34;;;1.71;100.00
9035;BME280;4552;43.422;24.592;2023-01-26T18:54:29;99766.28;;;1.82;100.00
9035;BME280;4552;43.422;24.592;2023-01-26T18:57:05;99754.34;;;1.88;100.00
9035;BME280;4552;43.422;24.592;2023-01-26T18:59:34;99741.16;;;1.71;100.00
9035;BME280;4552;43.422;24.592;2023-01-26T19:02:05;99766.41;;;1.89;100.00
9035;BME280;4552;43.422;24.592;2023-01-26T19:04:38;99745.69;;;1.85;100.00
9035;BME280;4552;43.422;24.592;2023-01-26T19:07:09;99762.78;;;1.78;100.00
9035;BME280;4552;43.422;24.592;2023-01-26T19:09:39;99726.22;;;1.54;100.00
9035;BME280;4552;43.422;24.592;2023-01-26T19:12:18;99759.28;;;1.76;100.00
9035;BME280;4552;43.422;24.592;2023-01-26T19:14:45;99756.03;;;1.85;100.00
9035;BME280;4552;43.422;24.592;2023-01-26T19:17:16;99752.50;;;1.81;100.00
9035;BME280;4552;43.422;24.592;2023-01-26T19:19:54;99738.50;;;1.67;100.00
9035;BME280;4552;43.422;24.592;2023-01-26T19:22:22;99743.97;;;1.85;100.00
9035;BME280;4552;43.422;24.592;2023-01-26T19:24:52;99745.69;;;1.85;100.00
9035;BME280;4552;43.422;24.592;2023-01-26T19:27:22;99735.25;;;1.77;100.00
9035;BME280;4552;43.422;24.592;2023-01-26T19:29:53;99696.47;;;1.72;100.00
9035;BME280;4552;43.422;24.592;2023-01-26T19:32:38;99691.56;;;1.38;100.00
9035;BME280;4552;43.422;24.592;2023-01-26T19:35:34;99691.53;;;1.37;100.00
9035;BME280;4552;43.422;24.592;2023-01-26T19:38:02;99697.63;;;1.40;100.00
9035;BME280;4552;43.422;24.592;2023-01-26T19:40:31;99732.69;;;1.77;100.00
9035;BME280;4552;43.422;24.592;2023-01-26T19:43:17;99709.19;;;1.62;100.00
9035;BME280;4552;43.422;24.592;2023-01-26T19:49:21;99684.88;;;1.48;100.00
9035;BME280;4552;43.422;24.592;2023-01-26T19:51:54;99670.03;;;1.36;100.00
9035;BME280;4552;43.422;24.592;2023-01-26T19:54:28;99675.00;;;1.27;100.00
9035;BME280;4552;43.422;24.592;2023-01-26T19:57:00;99689.97;;;1.45;100.00
9035;BME280;4552;43.422;24.592;2023-01-26T19:59:28;99698.47;;;1.41;100.00
9035;BME280;4552;43.422;24.592;2023-01-26T20:01:56;99669.19;;;1.36;100.00
9035;BME280;4552;43.422;24.592;2023-01-26T20:04:41;99651.16;;;1.37;100.00
9035;BME280;4552;43.422;24.592;2023-01-26T20:07:22;99635.75;;;1.40;100.00
9035;BME280;4552;43.422;24.592;2023-01-26T20:10:04;99670.19;;;1.45;100.00
9035;BME280;4552;43.422;24.592;2023-01-26T20:12:44;99660.81;;;1.49;100.00
9035;BME280;4552;43.422;24.592;2023-01-26T20:15:28;99644.19;;;1.33;100.00
9035;BME280;4552;43.422;24.592;2023-01-26T20:18:02;99656.38;;;1.40;100.00
9035;BME280;4552;43.422;24.592;2023-01-26T20:21:00;99633.13;;;1.37;100.00
9035;BME280;4552;43.422;24.592;2023-01-26T20:23:41;99634.72;;;1.31;100.00
9035;BME280;4552;43.422;24.592;2023-01-26T20:26:10;99617.38;;;1.24;100.00
9035;BME280;4552;43.422;24.592;2023-01-26T20:28:46;99661.13;;;1.67;100.00
9035;BME280;4552;43.422;24.592;2023-01-26T20:31:34;99655.00;;;1.60;100.00
9035;BME280;4552;43.422;24.592;2023-01-26T20:34:16;99622.84;;;1.39;100.00
9035;BME280;4552;43.422;24.592;2023-01-26T20:36:50;99619.25;;;1.31;100.00
9035;BME280;4552;43.422;24.592;2023-01-26T20:39:26;99642.72;;;1.46;100.00
9035;BME280;4552;43.422;24.592;2023-01-26T20:42:07;99619.31;;;1.35;100.00
9035;BME280;4552;43.422;24.592;2023-01-26T20:44:38;99617.69;;;1.39;100.00
9035;BME280;4552;43.422;24.592;2023-01-26T20:47:07;99644.72;;;1.62;100.00
9035;BME280;4552;43.422;24.592;2023-01-26T20:49:37;99622.84;;;1.39;100.00
9035;BME280;4552;43.422;24.592;2023-01-26T20:52:19;99605.72;;;1.44;100.00
9035;BME280;4552;43.422;24.592;2023-01-26T20:55:01;99642.97;;;1.61;100.00
9035;BME280;4552;43.422;24.592;2023-01-26T20:57:45;99642.81;;;1.52;100.00
9035;BME280;4552;43.422;24.592;2023-01-26T21:00:20;99631.66;;;1.54;100.00
9035;BME280;4552;43.422;24.592;2023-01-26T21:02:57;99628.16;;;1.48;100.00
9035;BME280;4552;43.422;24.592;2023-01-26T21:05:39;99606.44;;;1.35;100.00
9035;BME280;4552;43.422;24.592;2023-01-26T21:08:46;99640.34;;;1.58;100.00
9035;BME280;4552;43.422;24.592;2023-01-26T21:11:29;99607.38;;;1.39;100.00
9035;BME280;4552;43.422;24.592;2023-01-26T21:14:10;99628.13;;;1.46;100.00
9035;BME280;4552;43.422;24.592;2023-01-26T21:17:03;99598.84;;;1.44;100.00
9035;BME280;4552;43.422;24.592;2023-01-26T21:19:33;99599.75;;;1.46;100.00
9035;BME280;4552;43.422;24.592;2023-01-26T21:22:07;99627.53;;;1.64;100.00
9035;BME280;4552;43.422;24.592;2023-01-26T21:24:37;99620.63;;;1.61;100.00
9035;BME280;4552;43.422;24.592;2023-01-26T21:27:10;99587.66;;;1.42;100.00
9035;BME280;4552;43.422;24.592;2023-01-26T21:29:37;99589.44;;;1.45;100.00
9035;BME280;4552;43.422;24.592;2023-01-26T21:32:05;99574.94;;;1.53;100.00
9035;BME280;4552;43.422;24.592;2023-01-26T21:34:35;99582.03;;;1.66;100.00
9035;BME280;4552;43.422;24.592;2023-01-26T21:37:18;99552.63;;;1.55;100.00
9035;BME280;4552;43.422;24.592;2023-01-26T21:40:02;99552.66;;;1.58;100.00
9035;BME280;4552;43.422;24.592;2023-01-26T21:42:50;99571.00;;;1.77;100.00
9035;BME280;4552;43.422;24.592;2023-01-26T21:45:27;99560.28;;;1.50;100.00
9035;BME280;4552;43.422;24.592;2023-01-26T21:48:11;99593.25;;;1.68;100.00